sensor_id;sensor_type;location;lat;lon;timestamp;pressure;altitude;pressure_sealevel;temperature;humidity
77739;BME280;66904;59.926;30.404;2023-02-02T00:01:57;99857.56;;;28.49;22.82
77739;BME280;66904;59.926;30.404;2023-02-02T00:06:58;99856.19;;;28.46;22.58
77739;BME280;66904;59.926;30.404;2023-02-02T00:12:00;99866.56;;;28.49;22.81
77739;BME280;66904;59.926;30.404;2023-02-02T00:17:00;99852.63;;;28.46;22.34
77739;BME280;66904;59.926;30.404;2023-02-02T00:22:01;99865.50;;;28.50;22.71
77739;BME280;66904;59.926;30.404;2023-02-02T00:27:02;99859.22;;;28.50;22.72
77739;BME280;66904;59.926;30.404;2023-02-02T00:32:24;99864.50;;;28.56;22.65
77739;BME280;66904;59.926;30.404;2023-02-02T00:37:52;99860.13;;;28.55;22.80
77739;BME280;66904;59.926;30.404;2023-02-02T00:43:08;99858.09;;;28.46;22.46
77739;BME280;66904;59.926;30.404;2023-02-02T00:48:12;99866.25;;;28.46;22.37
77739;BME280;66904;59.926;30.404;2023-02-02T00:53:49;99868.78;;;28.52;22.36
77739;BME280;66904;59.926;30.404;2023-02-02T00:58:52;99861.63;;;28.46;22.69
77739;BME280;66904;59.926;30.404;2023-02-02T01:04:02;99856.50;;;28.50;22.35
77739;BME280;66904;59.926;30.404;2023-02-02T01:14:34;99861.88;;;28.45;22.48
77739;BME280;66904;59.926;30.404;2023-02-02T01:25:44;99863.69;;;28.39;22.49
77739;BME280;66904;59.926;30.404;2023-02-02T01:30:45;99859.41;;;28.43;22.38
77739;BME280;66904;59.926;30.404;2023-02-02T01:35:52;99858.59;;;28.43;22.09
77739;BME280;66904;59.926;30.404;2023-02-02T01:40:57;99851.16;;;28.38;22.43
77739;BME280;66904;59.926;30.404;2023-02-02T01:45:57;99860.72;;;28.41;22.27
77739;BME280;66904;59.926;30.404;2023-02-02T01:51:45;99872.84;;;28.50;22.12
77739;BME280;66904;59.926;30.404;2023-02-02T02:13:46;99883.81;;;28.38;22.74
77739;BME280;66904;59.926;30.404;2023-02-02T02:36:50;99886.88;;;28.42;22.10
77739;BME280;66904;59.926;30.404;2023-02-02T02:47:38;99906.34;;;28.34;22.43
77739;BME280;66904;59.926;30.404;2023-02-02T02:53:08;99902.34;;;28.41;22.03
77739;BME280;66904;59.926;30.404;2023-02-02T02:58:47;99894.69;;;28.38;21.92
77739;BME280;66904;59.926;30.404;2023-02-02T03:10:18;99909.97;;;28.39;21.80
77739;BME280;66904;59.926;30.404;2023-02-02T03:21:19;99916.72;;;28.37;22.23
77739;BME280;66904;59.926;30.404;2023-02-02T03:26:22;99919.94;;;28.50;22.46
77739;BME280;66904;59.926;30.404;2023-02-02T03:31:25;99911.78;;;28.34;22.24
77739;BME280;66904;59.926;30.404;2023-02-02T03:36:26;99914.97;;;28.31;22.33
77739;BME280;66904;59.926;30.404;2023-02-02T03:41:27;99916.91;;;28.30;22.07
77739;BME280;66904;59.926;30.404;2023-02-02T03:46:27;99923.41;;;28.29;21.73
77739;BME280;66904;59.926;30.404;2023-02-02T03:51:28;99925.88;;;28.31;22.32
77739;BME280;66904;59.926;30.404;2023-02-02T03:56:28;99934.03;;;28.31;22.10
77739;BME280;66904;59.926;30.404;2023-02-02T04:01:29;99936.50;;;28.32;22.21
77739;BME280;66904;59.926;30.404;2023-02-02T04:06:30;99936.50;;;28.32;22.33
77739;BME280;66904;59.926;30.404;2023-02-02T04:11:30;99937.56;;;28.31;22.30
77739;BME280;66904;59.926;30.404;2023-02-02T04:16:31;99944.50;;;28.39;22.59
77739;BME280;66904;59.926;30.404;2023-02-02T04:21:36;99949.44;;;28.42;22.28
77739;BME280;66904;59.926;30.404;2023-02-02T04:26:42;99947.78;;;28.41;22.50
77739;BME280;66904;59.926;30.404;2023-02-02T04:31:46;99954.72;;;28.48;23.19
77739;BME280;66904;59.926;30.404;2023-02-02T04:36:47;99962.38;;;28.51;23.47
77739;BME280;66904;59.926;30.404;2023-02-02T04:41:47;99959.16;;;28.54;23.05
77739;BME280;66904;59.926;30.404;2023-02-02T04:46:48;99970.38;;;28.58;23.14
77739;BME280;66904;59.926;30.404;2023-02-02T04:51:48;99968.47;;;28.58;23.25
77739;BME280;66904;59.926;30.404;2023-02-02T04:56:49;99973.09;;;28.58;22.82
77739;BME280;66904;59.926;30.404;2023-02-02T05:01:50;99976.31;;;28.55;23.14
77739;BME280;66904;59.926;30.404;2023-02-02T05:06:50;99980.09;;;28.54;22.42
77739;BME280;66904;59.926;30.404;2023-02-02T05:11:51;99977.88;;;28.51;22.88
77739;BME280;66904;59.926;30.404;2023-02-02T05:16:51;99989.53;;;28.46;22.63
77739;BME280;66904;59.926;30.404;2023-02-02T05:21:52;100006.38;;;28.43;22.37
77739;BME280;66904;59.926;30.404;2023-02-02T05:26:54;100013.09;;;28.41;22.67
77739;BME280;66904;59.926;30.404;2023-02-02T05:31:59;100008.16;;;28.38;22.31
77739;BME280;66904;59.926;30.404;2023-02-02T05:37:00;100009.47;;;28.35;22.31
77739;BME280;66904;59.926;30.404;2023-02-02T05:42:00;100011.63;;;28.33;21.92
77739;BME280;66904;59.926;30.404;2023-02-02T05:47:00;100013.44;;;28.28;21.63
77739;BME280;66904;59.926;30.404;2023-02-02T05:52:01;100017.47;;;28.25;21.85
77739;BME280;66904;59.926;30.404;2023-02-02T05:57:02;100020.19;;;28.25;21.87
77739;BME280;66904;59.926;30.404;2023-02-02T06:02:02;100026.69;;;28.24;21.84
77739;BME280;66904;59.926;30.404;2023-02-02T06:07:03;100029.91;;;28.21;21.97
77739;BME280;66904;59.926;30.404;2023-02-02T06:12:04;100043.50;;;28.21;22.02
77739;BME280;66904;59.926;30.404;2023-02-02T06:17:04;100048.63;;;28.17;21.53
77739;BME280;66904;59.926;30.404;2023-02-02T06:22:06;100047.81;;;28.17;21.48
77739;BME280;66904;59.926;30.404;2023-02-02T06:27:06;100048.88;;;28.16;21.75
77739;BME280;66904;59.926;30.404;2023-02-02T06:32:07;100058.09;;;28.15;21.34
77739;BME280;66904;59.926;30.404;2023-02-02T06:37:07;100058.09;;;28.15;21.29
77739;BME280;66904;59.926;30.404;2023-02-02T06:42:08;100067.31;;;28.14;21.73
77739;BME280;66904;59.926;30.404;2023-02-02T06:47:08;100065.69;;;28.13;21.58
77739;BME280;66904;59.926;30.404;2023-02-02T06:52:09;100073.00;;;28.12;21.59
77739;BME280;66904;59.926;30.404;2023-02-02T06:57:09;100066.75;;;28.12;21.71
77739;BME280;66904;59.926;30.404;2023-02-02T07:02:13;100075.72;;;28.12;21.41
77739;BME280;66904;59.926;30.404;2023-02-02T07:07:26;100079.50;;;28.11;21.21
77739;BME280;66904;59.926;30.404;2023-02-02T07:12:35;100088.75;;;28.10;21.76
77739;BME280;66904;59.926;30.404;2023-02-02T07:17:36;100098.81;;;28.10;21.56
77739;BME280;66904;59.926;30.404;2023-02-02T07:22:40;100105.09;;;28.10;21.08
77739;BME280;66904;59.926;30.404;2023-02-02T07:27:40;100092.88;;;28.01;21.66
77739;BME280;66904;59.926;30.404;2023-02-02T07:32:48;100108.88;;;28.09;21.70
77739;BME280;66904;59.926;30.404;2023-02-02T07:37:53;100114.31;;;28.09;21.02
77739;BME280;66904;59.926;30.404;2023-02-02T07:42:53;100113.34;;;28.04;21.24
77739;BME280;66904;59.926;30.404;2023-02-02T07:47:55;100112.25;;;28.05;21.22
77739;BME280;66904;59.926;30.404;2023-02-02T07:52:57;100112.06;;;28.06;21.48
77739;BME280;66904;59.926;30.404;2023-02-02T07:57:58;100124.59;;;28.07;21.52
77739;BME280;66904;59.926;30.404;2023-02-02T08:03:00;100127.31;;;28.07;21.62
77739;BME280;66904;59.926;30.404;2023-02-02T08:08:01;100129.22;;;28.07;21.26
77739;BME280;66904;59.926;30.404;2023-02-02T08:13:01;100132.75;;;28.07;21.52
77739;BME280;66904;59.926;30.404;2023-02-02T08:18:02;100128.13;;;28.08;21.60
77739;BME280;66904;59.926;30.404;2023-02-02T08:28:39;100135.47;;;28.07;21.41
77739;BME280;66904;59.926;30.404;2023-02-02T08:33:39;100132.13;;;28.05;21.49
77739;BME280;66904;59.926;30.404;2023-02-02T08:38:40;100142.56;;;28.08;21.32
77739;BME280;66904;59.926;30.404;2023-02-02T08:43:42;100144.22;;;28.09;21.49
77739;BME280;66904;59.926;30.404;2023-02-02T08:48:43;100151.06;;;28.12;21.45
77739;BME280;66904;59.926;30.404;2023-02-02T08:53:45;100157.91;;;28.14;22.01
77739;BME280;66904;59.926;30.404;2023-02-02T08:58:53;100164.78;;;28.17;21.27
77739;BME280;66904;59.926;30.404;2023-02-02T09:03:55;100155.31;;;28.19;21.57
77739;BME280;66904;59.926;30.404;2023-02-02T09:08:57;100160.25;;;28.22;21.85
77739;BME280;66904;59.926;30.404;2023-02-02T09:13:58;100160.59;;;28.26;21.97
77739;BME280;66904;59.926;30.404;2023-02-02T09:19:00;100154.56;;;28.24;21.37
77739;BME280;66904;59.926;30.404;2023-02-02T09:24:05;100165.44;;;28.24;21.67
77739;BME280;66904;59.926;30.404;2023-02-02T09:29:10;100170.44;;;28.27;21.89
77739;BME280;66904;59.926;30.404;2023-02-02T09:34:13;100183.78;;;28.29;21.74
77739;BME280;66904;59.926;30.404;2023-02-02T09:39:13;100168.41;;;28.22;21.85
77739;BME280;66904;59.926;30.404;2023-02-02T09:49:39;100192.41;;;28.26;22.04
77739;BME280;66904;59.926;30.404;2023-02-02T09:54:44;100194.56;;;28.23;22.04
77739;BME280;66904;59.926;30.404;2023-02-02T09:59:47;100185.56;;;28.23;22.00
77739;BME280;66904;59.926;30.404;2023-02-02T10:04:54;100187.19;;;28.24;22.37
77739;BME280;66904;59.926;30.404;2023-02-02T10:10:02;100194.31;;;28.25;22.34
77739;BME280;66904;59.926;30.404;2023-02-02T10:15:24;100190.28;;;28.28;22.23
77739;BME280;66904;59.926;30.404;2023-02-02T10:20:56;100201.75;;;28.30;22.73
77739;BME280;66904;59.926;30.404;2023-02-02T10:26:07;100205.31;;;28.30;22.38
77739;BME280;66904;59.926;30.404;2023-02-02T10:31:37;100207.28;;;28.35;22.04
77739;BME280;66904;59.926;30.404;2023-02-02T10:42:14;100211.09;;;28.34;22.15
77739;BME280;66904;59.926;30.404;2023-02-02T10:47:30;100213.47;;;28.30;22.46
77739;BME280;66904;59.926;30.404;2023-02-02T10:52:33;100215.84;;;28.27;22.72
77739;BME280;66904;59.926;30.404;2023-02-02T11:02:45;100209.09;;;28.29;22.16
77739;BME280;66904;59.926;30.404;2023-02-02T11:07:46;100225.16;;;28.31;22.14
77739;BME280;66904;59.926;30.404;2023-02-02T11:12:48;100226.81;;;28.32;21.95
77739;BME280;66904;59.926;30.404;2023-02-02T11:17:52;100229.06;;;28.35;21.67
77739;BME280;66904;59.926;30.404;2023-02-02T11:23:00;100225.84;;;28.38;21.98
77739;BME280;66904;59.926;30.404;2023-02-02T11:28:15;100228.34;;;28.39;21.40
77739;BME280;66904;59.926;30.404;2023-02-02T11:33:34;100239.56;;;28.43;21.49
77739;BME280;66904;59.926;30.404;2023-02-02T11:38:35;100246.56;;;28.39;21.65
77739;BME280;66904;59.926;30.404;2023-02-02T11:43:47;100245.59;;;28.45;21.48
77739;BME280;66904;59.926;30.404;2023-02-02T11:49:00;100244.19;;;28.42;21.28
77739;BME280;66904;59.926;30.404;2023-02-02T11:54:05;100253.41;;;28.41;21.94
77739;BME280;66904;59.926;30.404;2023-02-02T11:59:29;100249.25;;;28.50;21.66
77739;BME280;66904;59.926;30.404;2023-02-02T12:04:29;100251.88;;;28.45;21.82
77739;BME280;66904;59.926;30.404;2023-02-02T12:09:30;100249.84;;;28.52;22.11
77739;BME280;66904;59.926;30.404;2023-02-02T12:20:00;100263.28;;;28.59;23.97
77739;BME280;66904;59.926;30.404;2023-02-02T12:30:19;100274.91;;;28.54;24.68
77739;BME280;66904;59.926;30.404;2023-02-02T12:41:13;100286.97;;;28.58;23.69
77739;BME280;66904;59.926;30.404;2023-02-02T12:46:41;100292.97;;;28.60;23.89
77739;BME280;66904;59.926;30.404;2023-02-02T12:57:23;100297.91;;;27.01;23.44
77739;BME280;66904;59.926;30.404;2023-02-02T13:02:32;100295.28;;;27.06;23.68
77739;BME280;66904;59.926;30.404;2023-02-02T13:12:42;100314.72;;;27.51;22.92
77739;BME280;66904;59.926;30.404;2023-02-02T13:22:52;100303.56;;;27.41;22.76
77739;BME280;66904;59.926;30.404;2023-02-02T13:27:53;100316.75;;;27.67;23.23
77739;BME280;66904;59.926;30.404;2023-02-02T13:33:06;100322.66;;;27.87;23.03
77739;BME280;66904;59.926;30.404;2023-02-02T13:38:22;100329.75;;;28.00;23.00
77739;BME280;66904;59.926;30.404;2023-02-02T13:59:00;100343.59;;;28.21;22.90
77739;BME280;66904;59.926;30.404;2023-02-02T14:04:19;100349.53;;;28.30;22.55
77739;BME280;66904;59.926;30.404;2023-02-02T14:09:26;100352.25;;;28.30;22.86
77739;BME280;66904;59.926;30.404;2023-02-02T14:14:28;100363.69;;;28.32;22.92
77739;BME280;66904;59.926;30.404;2023-02-02T14:29:56;100379.06;;;28.38;22.55
77739;BME280;66904;59.926;30.404;2023-02-02T14:40:42;100386.41;;;28.49;22.33
77739;BME280;66904;59.926;30.404;2023-02-02T14:45:47;100391.50;;;28.46;22.68
77739;BME280;66904;59.926;30.404;2023-02-02T14:56:07;100393.03;;;28.53;22.50
77739;BME280;66904;59.926;30.404;2023-02-02T15:06:28;100410.06;;;28.72;22.06
77739;BME280;66904;59.926;30.404;2023-02-02T15:17:11;100416.78;;;28.58;22.52
77739;BME280;66904;59.926;30.404;2023-02-02T15:22:40;100431.38;;;28.63;22.67
77739;BME280;66904;59.926;30.404;2023-02-02T15:27:49;100436.13;;;28.68;22.50
77739;BME280;66904;59.926;30.404;2023-02-02T15:32:51;100441.91;;;28.71;22.97
77739;BME280;66904;59.926;30.404;2023-02-02T15:37:57;100448.19;;;28.72;22.79
77739;BME280;66904;59.926;30.404;2023-02-02T15:43:02;100453.63;;;28.72;22.45
77739;BME280;66904;59.926;30.404;2023-02-02T15:48:12;100455.88;;;28.75;22.81
77739;BME280;66904;59.926;30.404;2023-02-02T15:53:25;100459.66;;;28.74;22.70
77739;BME280;66904;59.926;30.404;2023-02-02T15:58:31;100460.50;;;28.74;22.46
77739;BME280;66904;59.926;30.404;2023-02-02T16:04:19;100471.81;;;28.95;22.02
77739;BME280;66904;59.926;30.404;2023-02-02T16:08:53;100470.19;;;28.82;22.35
77739;BME280;66904;59.926;30.404;2023-02-02T16:13:58;100480.25;;;28.82;21.95
77739;BME280;66904;59.926;30.404;2023-02-02T16:29:23;100482.63;;;28.90;21.99
77739;BME280;66904;59.926;30.404;2023-02-02T16:39:40;100489.72;;;28.91;21.48
77739;BME280;66904;59.926;30.404;2023-02-02T16:44:42;100502.28;;;28.92;22.59
77739;BME280;66904;59.926;30.404;2023-02-02T16:49:45;100498.72;;;28.91;22.48
77739;BME280;66904;59.926;30.404;2023-02-02T16:54:58;100514.94;;;28.98;22.75
77739;BME280;66904;59.926;30.404;2023-02-02T17:00:06;100510.78;;;28.95;22.77
77739;BME280;66904;59.926;30.404;2023-02-02T17:05:20;100524.78;;;28.99;23.45
77739;BME280;66904;59.926;30.404;2023-02-02T17:10:25;100521.47;;;28.97;23.70
77739;BME280;66904;59.926;30.404;2023-02-02T17:15:35;100518.25;;;29.00;24.41
77739;BME280;66904;59.926;30.404;2023-02-02T17:20:38;100521.47;;;28.97;24.36
77739;BME280;66904;59.926;30.404;2023-02-02T17:25:43;100531.41;;;29.03;26.17
77739;BME280;66904;59.926;30.404;2023-02-02T17:30:46;100527.25;;;29.12;26.73
77739;BME280;66904;59.926;30.404;2023-02-02T17:35:48;100528.41;;;29.16;26.73
77739;BME280;66904;59.926;30.404;2023-02-02T17:40:51;100534.94;;;29.15;26.09
77739;BME280;66904;59.926;30.404;2023-02-02T17:45:52;100532.44;;;29.13;26.08
77739;BME280;66904;59.926;30.404;2023-02-02T17:50:52;100529.00;;;29.18;26.28
77739;BME280;66904;59.926;30.404;2023-02-02T17:55:53;100533.47;;;29.24;26.01
77739;BME280;66904;59.926;30.404;2023-02-02T18:00:54;100536.94;;;29.31;26.09
77739;BME280;66904;59.926;30.404;2023-02-02T18:05:58;100538.13;;;29.35;25.73
77739;BME280;66904;59.926;30.404;2023-02-02T18:11:01;100541.06;;;29.34;25.14
77739;BME280;66904;59.926;30.404;2023-02-02T18:16:04;100543.94;;;29.27;25.30
77739;BME280;66904;59.926;30.404;2023-02-02T18:21:09;100562.88;;;29.22;24.94
77739;BME280;66904;59.926;30.404;2023-02-02T18:26:13;100555.31;;;29.12;24.36
77739;BME280;66904;59.926;30.404;2023-02-02T18:31:16;100566.09;;;29.07;24.75
77739;BME280;66904;59.926;30.404;2023-02-02T18:36:20;100556.63;;;28.98;24.26
77739;BME280;66904;59.926;30.404;2023-02-02T18:41:20;100567.53;;;28.98;24.42
77739;BME280;66904;59.926;30.404;2023-02-02T18:46:21;100571.31;;;28.97;24.18
77739;BME280;66904;59.926;30.404;2023-02-02T18:51:22;100570.72;;;28.95;23.96
77739;BME280;66904;59.926;30.404;2023-02-02T18:56:22;100572.50;;;29.01;24.79
77739;BME280;66904;59.926;30.404;2023-02-02T19:01:23;100571.44;;;29.02;24.69
77739;BME280;66904;59.926;30.404;2023-02-02T19:06:25;100573.31;;;29.02;25.50
77739;BME280;66904;59.926;30.404;2023-02-02T19:11:47;100574.16;;;29.02;25.77
77739;BME280;66904;59.926;30.404;2023-02-02T19:16:49;100569.53;;;29.03;25.78
77739;BME280;66904;59.926;30.404;2023-02-02T19:22:00;100581.59;;;29.07;25.62
77739;BME280;66904;59.926;30.404;2023-02-02T19:27:00;100575.56;;;29.05;25.29
77739;BME280;66904;59.926;30.404;2023-02-02T19:32:08;100589.78;;;29.07;24.81
77739;BME280;66904;59.926;30.404;2023-02-02T19:37:32;100590.75;;;29.12;24.45
77739;BME280;66904;59.926;30.404;2023-02-02T19:42:34;100597.72;;;29.08;24.51
77739;BME280;66904;59.926;30.404;2023-02-02T19:47:35;100594.41;;;29.06;24.15
77739;BME280;66904;59.926;30.404;2023-02-02T19:52:36;100591.44;;;29.08;24.12
77739;BME280;66904;59.926;30.404;2023-02-02T19:57:42;100593.47;;;29.12;24.21
77739;BME280;66904;59.926;30.404;2023-02-02T20:03:05;100598.53;;;29.20;23.92
77739;BME280;66904;59.926;30.404;2023-02-02T20:08:37;100604.34;;;29.24;24.04
77739;BME280;66904;59.926;30.404;2023-02-02T20:13:44;100610.25;;;29.21;24.33
77739;BME280;66904;59.926;30.404;2023-02-02T20:18:48;100601.25;;;29.20;24.33
77739;BME280;66904;59.926;30.404;2023-02-02T20:23:52;100611.59;;;29.30;24.03
77739;BME280;66904;59.926;30.404;2023-02-02T20:28:55;100615.28;;;29.36;24.69
77739;BME280;66904;59.926;30.404;2023-02-02T20:33:56;100611.22;;;29.38;24.31
77739;BME280;66904;59.926;30.404;2023-02-02T20:38:59;100607.44;;;29.39;24.58
77739;BME280;66904;59.926;30.404;2023-02-02T20:44:06;100614.78;;;29.39;24.46
77739;BME280;66904;59.926;30.404;2023-02-02T20:49:06;100613.13;;;29.38;24.44
77739;BME280;66904;59.926;30.404;2023-02-02T20:54:08;100615.75;;;29.33;24.50
77739;BME280;66904;59.926;30.404;2023-02-02T20:59:09;100616.22;;;29.30;24.13
77739;BME280;66904;59.926;30.404;2023-02-02T21:04:09;100624.06;;;29.26;24.29
77739;BME280;66904;59.926;30.404;2023-02-02T21:09:10;100625.31;;;29.23;24.69
77739;BME280;66904;59.926;30.404;2023-02-02T21:14:11;100626.38;;;29.22;24.86
77739;BME280;66904;59.926;30.404;2023-02-02T21:19:12;100615.72;;;29.21;24.99
77739;BME280;66904;59.926;30.404;2023-02-02T21:24:12;100613.00;;;29.21;24.87
77739;BME280;66904;59.926;30.404;2023-02-02T21:29:13;100619.50;;;29.20;25.02
77739;BME280;66904;59.926;30.404;2023-02-02T21:34:17;100616.44;;;29.16;24.93
77739;BME280;66904;59.926;30.404;2023-02-02T21:39:43;100614.31;;;29.18;24.77
77739;BME280;66904;59.926;30.404;2023-02-02T21:44:52;100614.66;;;29.10;25.14
77739;BME280;66904;59.926;30.404;2023-02-02T21:49:58;100619.75;;;29.07;24.92
77739;BME280;66904;59.926;30.404;2023-02-02T21:55:33;100626.16;;;29.12;25.09
77739;BME280;66904;59.926;30.404;2023-02-02T22:00:35;100617.75;;;29.02;24.89
77739;BME280;66904;59.926;30.404;2023-02-02T22:05:35;100624.59;;;29.05;24.97
77739;BME280;66904;59.926;30.404;2023-02-02T22:10:38;100630.31;;;29.03;24.63
77739;BME280;66904;59.926;30.404;2023-02-02T22:15:39;100625.91;;;29.02;25.04
77739;BME280;66904;59.926;30.404;2023-02-02T22:20:41;100632.41;;;29.01;24.84
77739;BME280;66904;59.926;30.404;2023-02-02T22:25:54;100625.56;;;28.99;24.78
77739;BME280;66904;59.926;30.404;2023-02-02T22:36:45;100634.22;;;28.96;24.63
77739;BME280;66904;59.926;30.404;2023-02-02T22:41:45;100631.72;;;28.94;24.57
77739;BME280;66904;59.926;30.404;2023-02-02T22:47:13;100635.16;;;29.01;25.03
77739;BME280;66904;59.926;30.404;2023-02-02T22:52:53;100641.91;;;28.99;24.67
77739;BME280;66904;59.926;30.404;2023-02-02T22:58:09;100636.44;;;28.87;24.76
77739;BME280;66904;59.926;30.404;2023-02-02T23:03:09;100637.88;;;28.90;24.47
77739;BME280;66904;59.926;30.404;2023-02-02T23:20:03;100638.78;;;28.84;24.63
77739;BME280;66904;59.926;30.404;2023-02-02T23:31:17;100645.22;;;28.89;24.07
77739;BME280;66904;59.926;30.404;2023-02-02T23:36:57;100647.81;;;28.84;24.56
77739;BME280;66904;59.926;30.404;2023-02-02T23:48:33;100646.28;;;28.88;23.79
